Main page
METAR-TAF:

METAR-TAF

Airports :

Cranfield, England

Cranfield Airport

latitude: 52-04N, longitude: 000-37W, elevation: 111 m

Current weather observation

The report was made 22 minutes ago, at 08:20 UTC
Wind 6 kt from the West
Temperature 16°C
Humidity 82%
Pressure 1020 hPa
Visibility 10 km or more
Few clouds at a height of 3200 ft

METAR: EGTC 230820Z 28006KT 9999 FEW032 16/13 Q1020

Time: 09:42 (08:42 UTC)

Forecast

The report was made 41 minutes ago, at 08:01 UTC
Forecast valid from 23 at 09 UTC to 23 at 18 UTC
Wind 9 kt from the West
Visibility 10 km or more
Few clouds at a height of 4500 ft

TAF: EGTC 230801Z 2309/2318 27009KT 9999 FEW045

Weather observations and forecasts of more than 4000 airports (METAR and TAF reports).

The available stations are represented by yellow and red dots on the map.

Hover mouse over dot to see the name of the station.

Then click to see weather observations and forecasts.

To change the map : click on the green buttons with a black cross to zoom in, on the green button with a dash to zoom out, or on the green arrows for adjacent maps.


METAR-TAF: